Terminal Aerodrome Forecast
Issued by NWS Quad Cities IA IL

Home | Current Version | Previous Version | Text Only | Print | Product List | Glossary On
Versions: 1 2 3 4 5 6 7 8 9 10 11 12 13 14 15 16 17 18 19 20
000
FTUS43 KDVN 240500
TAFDBQ
TAF
KDBQ 240537Z 2406/2506 22012G18KT P6SM BKN200
     FM241500 26017G26KT P6SM SCT030 BKN080
     FM241900 30018G25KT P6SM BKN025
     FM250100 30012KT P6SM SKC=

USA.gov is the U.S. government's official web portal to all federal, state and local government web resources and services.